Forest Park, Illinois
Current Conditions -  °F | °C
As of 5:53 AM on Friday 24 Oct 2014 (Local Time) from KMDW Reporting Station
Overcast Overcast  
Wind Chill: 54°   Ceiling: 2500
Heat Index: 54°   Visibility: 9mi
Dew Point: 46°   Wind: 6mph
Humidity: 75%   Direction: 210°SSW
Pressure: 30.05"   Gusts: NA
Location:  41.88°N, 87.81°W
Report Text: KMDW 241053Z 21005KT 9SM OVC025 12/08 A3005 RMK AO2 SLP175 T01220078
Loading
Personal Weather Stations






























Interactive Weather Map
Tropical Storm Tracking
New forecast layout! Learn more

10-Day Weather Forecast

Advertisements
Track Severe Weather on mobile